• Join FlightAware (Why Join?)
  • Login
  • US Flag 
11:02AM EDT


 

Airport Tracker/Info


-or-


 

Live Flight TrackerFlight Track Log ✈ ANA1713 ✈ 01-May-2012 ✈ RJBB / KIX - RJCC / CTS

Flight Track Log - Related Links

Times and Time Zones

All times are in EDT time to prevent confusion due to time zone crossing. See the ANA1713 flight status page for this flight to view local times or setup timezone preferences in your user account.

Time Position Orientation Groundspeed Altitude Reporting Facility
EDT Latitude Longitude Course Direction KTS MPH feet Rate Location/Type
09:59PM 34.4529 135.2614 29° Northeast  Level Estimated
10:00PM 34.5555 135.3309 29° Northeast  Level Estimated
10:01PM 34.6579 135.4005 29° Northeast  Level Estimated
10:02PM 34.7603 135.4703 29° Northeast  Level Estimated
10:03PM 34.8627 135.5403 29° Northeast  Level Estimated
10:04PM 34.9651 135.6104 29° Northeast  Level Estimated
10:05PM 35.0674 135.6808 29° Northeast  Level Estimated
10:06PM 35.1697 135.7513 29° Northeast  Level Estimated
10:07PM 35.2719 135.8219 29° Northeast  Level Estimated
10:08PM 35.3741 135.8928 30° Northeast  Level Estimated
10:09PM 35.4762 135.9638 30° Northeast  Level Estimated
10:10PM 35.5783 136.0350 30° Northeast  Level Estimated
10:11PM 35.6804 136.1064 30° Northeast  Level Estimated
10:12PM 35.7824 136.1780 30° Northeast  Level Estimated
10:13PM 35.8844 136.2498 30° Northeast  Level Estimated
10:14PM 35.9863 136.3217 30° Northeast  Level Estimated
10:15PM 36.0882 136.3939 30° Northeast  Level Estimated
10:16PM 36.1900 136.4662 30° Northeast  Level Estimated
10:17PM 36.2918 136.5387 30° Northeast  Level Estimated
10:18PM 36.3936 136.6114 30° Northeast  Level Estimated
10:19PM 36.4953 136.6843 30° Northeast  Level Estimated
10:20PM 36.5970 136.7574 30° Northeast  Level Estimated
10:21PM 36.6986 136.8307 30° Northeast  Level Estimated
10:22PM 36.8002 136.9041 30° Northeast  Level Estimated
10:23PM 36.9017 136.9778 30° Northeast  Level Estimated
10:24PM 37.0032 137.0516 30° Northeast  Level Estimated
10:25PM 37.1046 137.1257 30° Northeast  Level Estimated
10:26PM 37.2060 137.1999 30° Northeast  Level Estimated
10:27PM 37.3074 137.2744 30° Northeast  Level Estimated
10:28PM 37.4087 137.3490 30° Northeast  Level Estimated
10:29PM 37.5099 137.4239 30° Northeast  Level Estimated
10:30PM 37.6111 137.4990 30° Northeast  Level Estimated
10:31PM 37.7123 137.5742 31° Northeast  Level Estimated
10:32PM 37.8134 137.6497 31° Northeast  Level Estimated
10:33PM 37.9145 137.7254 31° Northeast  Level Estimated
10:34PM 38.0155 137.8013 31° Northeast  Level Estimated
10:35PM 38.1164 137.8774 31° Northeast  Level Estimated
10:36PM 38.2173 137.9537 31° Northeast  Level Estimated
10:37PM 38.3182 138.0302 31° Northeast  Level Estimated
10:38PM 38.4190 138.1069 31° Northeast  Level Estimated
10:39PM 38.5198 138.1839 31° Northeast  Level Estimated
10:40PM 38.6205 138.2611 31° Northeast  Level Estimated
10:41PM 38.7212 138.3384 31° Northeast  Level Estimated
10:42PM 38.8218 138.4160 31° Northeast  Level Estimated
10:43PM 38.9224 138.4939 31° Northeast  Level Estimated
10:44PM 39.0229 138.5719 31° Northeast  Level Estimated
10:45PM 39.1233 138.6502 31° Northeast  Level Estimated
10:46PM 39.2237 138.7287 31° Northeast  Level Estimated
10:47PM 39.3241 138.8074 31° Northeast  Level Estimated
10:48PM 39.4244 138.8863 31° Northeast  Level Estimated
10:49PM 39.5246 138.9655 31° Northeast  Level Estimated
10:50PM 39.6248 139.0448 31° Northeast  Level Estimated
10:51PM 39.7250 139.1245 31° Northeast  Level Estimated
10:52PM 39.8251 139.2043 32° Northeast  Level Estimated
10:53PM 39.9251 139.2844 32° Northeast  Level Estimated
10:54PM 40.0251 139.3647 32° Northeast  Level Estimated
10:55PM 40.1250 139.4453 32° Northeast  Level Estimated
10:56PM 40.2248 139.5261 32° Northeast  Level Estimated
10:57PM 40.3246 139.6071 32° Northeast  Level Estimated
10:58PM 40.4244 139.6884 32° Northeast  Level Estimated
10:59PM 40.5241 139.7699 32° Northeast  Level Estimated
11:00PM 40.6237 139.8516 32° Northeast  Level Estimated
11:01PM 40.7233 139.9336 32° Northeast  Level Estimated
11:02PM 40.8228 140.0159 32° Northeast  Level Estimated
11:03PM 40.9223 140.0984 32° Northeast  Level Estimated
11:04PM 41.0217 140.1811 32° Northeast  Level Estimated
11:05PM 41.1210 140.2641 32° Northeast  Level Estimated
11:06PM 41.2203 140.3473 32° Northeast  Level Estimated
11:07PM 41.3195 140.4308 32° Northeast  Level Estimated
11:08PM 41.4187 140.5146 32° Northeast  Level Estimated
11:09PM 41.5178 140.5986 32° Northeast  Level Estimated
11:10PM 41.6168 140.6829 33° Northeast  Level Estimated
11:11PM 41.7158 140.7674 33° Northeast  Level Estimated
11:12PM 41.8147 140.8522 33° Northeast  Level Estimated
11:13PM 41.9136 140.9372 33° Northeast  Level Estimated
11:14PM 42.0123 141.0225 33° Northeast  Level Estimated
11:15PM 42.1111 141.1081 33° Northeast  Level Estimated
11:16PM 42.2097 141.1940 33° Northeast  Level Estimated
11:17PM 42.3083 141.2801 33° Northeast  Level Estimated
11:18PM 42.4069 141.3665 33° Northeast  Level Estimated
11:19PM 42.5053 141.4531 33° Northeast  Level Estimated
11:20PM 42.6037 141.5400 33° Northeast  Level Estimated
11:21PM 42.7021 141.6272 33° Northeast  Level Estimated
11:22PM 42.8004 141.7147 213° Southwest  Level Estimated
11:23PM 42.7021 141.6272 33° Northeast  Level Estimated
11:24PM 42.8004 141.7147 213° Southwest  Level Estimated
11:25PM 42.7021 141.6272 33° Northeast  Level Estimated
11:26PM 42.8004 141.7147 213° Southwest  Level Estimated
11:27PM 42.7021 141.6272 33° Northeast  Level Estimated
11:28PM 42.8004 141.7147 213° Southwest  Level Estimated
11:29PM 42.7021 141.6272 33° Northeast  Level Estimated
11:30PM 42.8004 141.7147 213° Southwest  Level Estimated
11:31PM 42.7021 141.6272 33° Northeast  Level Estimated
11:32PM 42.8004 141.7147 213° Southwest  Level Estimated
11:33PM 42.7021 141.6272 33° Northeast  Level Estimated
11:34PM 42.8004 141.7147 213° Southwest  Level Estimated
11:35PM 42.7021 141.6272 33° Northeast  Level Estimated
11:36PM 42.8004 141.7147 213° Southwest  Level Estimated
11:37PM 42.7021 141.6272 213° Southwest  Level Estimated